Time;durP1;ratioP1;P1;durP2;ratioP2;P2;SDS_P1;SDS_P2;PMS_P1;PMS_P2;Temp;Humidity;BMP_temperature;BMP_pressure;BME280_temperature;BME280_humidity;BME280_pressure;Samples;Min_cycle;Max_cycle;Signal;HPM_P1;HPM_P2
2021/04/09 00:02:25;;;;;;;36.50;15.85;;;;;;;20.04;31.90;156397.38;1741218;82;22057;-81
2021/04/09 00:04:57;;;;;;;35.55;16.15;;;;;;;20.00;31.97;156388.14;1741200;82;21201;-81
2021/04/09 00:07:30;;;;;;;41.53;17.20;;;;;;;20.01;31.89;156389.48;1713694;82;21205;-81
2021/04/09 00:10:02;;;;;;;32.13;15.50;;;;;;;19.98;31.96;156381.53;1781331;80;22050;-83
2021/04/09 00:12:37;;;;;;;40.35;16.52;;;;;;;19.97;31.95;156378.89;1781143;80;21379;-83
2021/04/09 00:15:11;;;;;;;47.00;19.55;;;;;;;19.89;32.00;156356.36;1781248;80;21337;-81
2021/04/09 00:17:44;;;;;;;52.67;20.85;;;;;;;19.91;31.99;156362.95;1761590;80;21210;-81
2021/04/09 00:20:22;;;;;;;60.33;23.87;;;;;;;19.93;32.18;156368.25;1781150;80;22165;-81
2021/04/09 00:22:55;;;;;;;45.73;17.15;;;;;;;19.95;32.13;156373.55;1781249;80;21340;-81
2021/04/09 00:25:28;;;;;;;34.73;15.18;;;;;;;19.94;32.08;156370.91;1781247;80;21599;-81
2021/04/09 00:28:00;;;;;;;35.35;14.00;;;;;;;19.94;32.19;156370.91;1781236;80;21399;-80
2021/04/09 00:30:34;;;;;;;39.73;18.62;;;;;;;19.97;32.21;156378.89;1781123;80;21178;-80
2021/04/09 00:33:07;;;;;;;39.13;16.50;;;;;;;20.00;32.30;156388.14;1781288;80;22237;-80
2021/04/09 00:35:39;;;;;;;39.63;16.73;;;;;;;20.05;32.02;156400.03;1781310;80;21379;-80
2021/04/09 00:38:12;;;;;;;39.92;15.95;;;;;;;19.99;32.07;156384.19;1781157;80;21329;-80
2021/04/09 00:40:44;;;;;;;41.55;17.23;;;;;;;20.01;32.12;156389.48;1781330;80;21186;-82
2021/04/09 00:43:17;;;;;;;45.88;19.32;;;;;;;19.94;32.24;156370.91;1781231;80;21328;-82
2021/04/09 00:45:49;;;;;;;55.65;22.35;;;;;;;19.83;32.29;156341.83;1781132;80;21182;-82
2021/04/09 00:48:23;;;;;;;48.05;20.40;;;;;;;19.98;32.11;156380.19;1781130;80;21813;-83
2021/04/09 00:50:55;;;;;;;55.12;21.93;;;;;;;19.89;32.14;156357.72;1781205;80;21606;-83
2021/04/09 00:53:28;;;;;;;48.33;21.23;;;;;;;19.84;32.26;156344.47;1781583;80;21370;-82
2021/04/09 00:56:03;;;;;;;42.75;18.55;;;;;;;19.87;32.35;156351.06;1775445;81;21333;-83
2021/04/09 00:58:37;;;;;;;50.25;22.70;;;;;;;19.82;32.36;156339.19;1775372;81;22083;-82
2021/04/09 01:01:10;;;;;;;52.55;21.27;;;;;;;19.83;32.30;156340.53;1775342;81;22069;-83
2021/04/09 01:03:42;;;;;;;40.95;16.82;;;;;;;19.85;32.36;156345.83;1775330;81;21880;-82
2021/04/09 01:06:15;;;;;;;36.53;15.18;;;;;;;19.82;32.35;156339.19;1775359;81;21344;-82
2021/04/09 01:08:47;;;;;;;34.23;14.75;;;;;;;19.87;32.26;156351.06;1775411;81;21681;-81
2021/04/09 01:11:20;;;;;;;33.08;15.13;;;;;;;19.81;32.21;156336.53;1775556;81;21189;-82
2021/04/09 01:13:54;;;;;;;33.18;13.62;;;;;;;19.78;32.23;156328.64;1775404;80;21193;-82
2021/04/09 01:16:47;;;;;;;28.23;14.55;;;;;;;19.73;32.08;156315.41;1775259;81;21237;-83
2021/04/09 01:20:03;;;;;;;30.72;14.20;;;;;;;19.58;32.23;156275.75;1775400;81;21860;-83
2021/04/09 01:22:46;;;;;;;31.15;14.28;;;;;;;19.59;32.29;156277.09;1775403;81;21175;-83
2021/04/09 01:26:03;;;;;;;38.73;15.32;;;;;;;19.55;32.36;156266.50;1775338;80;21183;-83
2021/04/09 01:28:48;;;;;;;36.20;16.75;;;;;;;19.59;32.23;156277.09;1775455;81;21391;-83
2021/04/09 01:31:48;;;;;;;47.13;17.30;;;;;;;19.56;32.31;156269.16;1775617;81;22156;-84
2021/04/09 01:34:22;;;;;;;40.52;18.12;;;;;;;19.56;32.45;156269.16;1775614;81;21277;-84
2021/04/09 01:36:57;;;;;;;43.95;18.23;;;;;;;19.52;32.31;156258.56;1775631;81;21371;-84
2021/04/09 01:39:37;;;;;;;64.17;21.77;;;;;;;19.52;32.35;156258.56;1775372;81;21253;-84
2021/04/09 01:42:12;;;;;;;62.03;22.13;;;;;;;19.51;32.63;156257.28;1775533;81;21353;-84
2021/04/09 01:44:47;;;;;;;42.17;19.17;;;;;;;19.49;32.59;156251.98;1775595;81;21344;-84
2021/04/09 01:47:27;;;;;;;38.48;15.63;;;;;;;19.49;32.68;156250.69;1775546;81;21400;-82
2021/04/09 01:50:03;;;;;;;42.25;17.15;;;;;;;19.51;32.78;156257.28;1775568;81;21257;-82
2021/04/09 01:52:35;;;;;;;47.40;18.48;;;;;;;19.49;32.63;156251.98;1775433;81;21591;-82
2021/04/09 01:55:10;;;;;;;39.80;16.80;;;;;;;19.43;32.78;156236.16;1775523;79;21764;-81
2021/04/09 01:57:44;;;;;;;38.90;16.37;;;;;;;19.31;32.75;156204.44;1775512;81;22153;-80
2021/04/09 02:00:20;;;;;;;37.90;16.27;;;;;;;19.07;33.14;156140.98;1775459;81;21308;-80
2021/04/09 02:02:53;;;;;;;34.55;14.98;;;;;;;19.03;33.21;156127.77;1775541;81;21556;-81
2021/04/09 02:05:28;;;;;;;44.77;17.92;;;;;;;18.98;33.19;156114.58;1775626;81;21332;-80
2021/04/09 02:08:00;;;;;;;36.75;15.70;;;;;;;19.23;32.86;156183.28;1775422;81;21340;-80
2021/04/09 02:10:32;;;;;;;36.17;15.93;;;;;;;19.39;32.52;156224.22;1775478;81;21269;-80
2021/04/09 02:13:04;;;;;;;40.20;17.45;;;;;;;19.36;32.52;156216.33;1775611;81;21307;-80
2021/04/09 02:15:37;;;;;;;48.98;19.55;;;;;;;19.33;32.48;156209.69;1775642;81;21438;-80
2021/04/09 02:18:10;;;;;;;62.30;22.73;;;;;;;19.31;32.55;156204.44;1775415;81;22180;-80
2021/04/09 02:20:42;;;;;;;55.05;21.20;;;;;;;19.05;32.70;156135.70;1775432;81;22030;-80
2021/04/09 02:23:15;;;;;;;48.50;19.65;;;;;;;18.86;32.96;156084.19;1775522;81;21193;-80
2021/04/09 02:25:48;;;;;;;52.38;21.87;;;;;;;18.85;33.22;156081.55;1775404;79;21722;-81
2021/04/09 02:28:21;;;;;;;49.90;19.85;;;;;;;18.85;33.09;156081.55;1775612;81;21344;-81
2021/04/09 02:31:05;;;;;;;41.13;17.75;;;;;;;18.79;33.31;156065.72;1775421;81;21182;-80
2021/04/09 02:33:38;;;;;;;36.65;14.93;;;;;;;19.08;33.26;156142.28;1775518;81;21364;-81
2021/04/09 02:36:19;;;;;;;40.23;15.05;;;;;;;19.14;33.52;156158.22;1775598;81;21341;-81
2021/04/09 02:42:30;;;;;;;34.92;13.35;;;;;;;19.16;33.42;156164.80;1775382;81;21149;-81
2021/04/09 02:45:03;;;;;;;37.98;16.40;;;;;;;19.16;33.49;156164.80;1775388;81;21455;-81
2021/04/09 02:47:38;;;;;;;47.88;18.10;;;;;;;19.15;33.42;156160.86;1775516;81;21425;-82
2021/04/09 02:50:36;;;;;;;46.33;17.95;;;;;;;19.21;33.27;156177.98;1775492;81;21330;-81
2021/04/09 02:53:17;;;;;;;39.00;17.62;;;;;;;19.19;33.12;156171.39;1771996;80;21340;-81
2021/04/09 02:55:49;;;;;;;;;;;;;;;19.13;32.88;156155.56;1779130;80;21260;-82
2021/04/09 02:58:23;;;;;;;37.28;13.90;;;;;;;19.08;32.80;156142.28;1778165;80;20539;-82
2021/04/09 03:00:55;;;;;;;40.15;16.10;;;;;;;19.03;32.83;156127.77;1778133;80;21225;-81
2021/04/09 03:03:28;;;;;;;46.28;17.05;;;;;;;19.00;32.77;156119.81;1778237;80;21586;-81
2021/04/09 03:06:00;;;;;;;46.68;18.85;;;;;;;19.08;32.61;156142.28;1778137;80;21344;-81
2021/04/09 03:08:33;;;;;;;46.28;17.85;;;;;;;19.06;32.54;156138.34;1778132;80;22162;-82
2021/04/09 03:11:05;;;;;;;51.73;19.82;;;;;;;19.03;32.51;156129.11;1778188;80;21191;-80
2021/04/09 03:13:38;;;;;;;51.18;16.62;;;;;;;18.99;32.55;156118.53;1778116;80;21256;-79
2021/04/09 03:16:11;;;;;;;38.25;15.48;;;;;;;18.93;32.73;156102.66;1778218;80;21316;-79
2021/04/09 03:18:44;;;;;;;37.80;16.73;;;;;;;18.55;33.28;156002.34;1778239;80;21197;-79
2021/04/09 03:21:16;;;;;;;27.75;13.32;;;;;;;18.43;33.62;155969.31;1778267;80;21218;-80
2021/04/09 03:23:49;;;;;;;30.20;12.85;;;;;;;18.44;33.76;155973.31;1778297;80;21190;-78
2021/04/09 03:26:22;;;;;;;19.50;10.38;;;;;;;18.82;33.60;156073.61;1778313;80;21301;-78
2021/04/09 03:28:55;;;;;;;28.12;13.43;;;;;;;19.00;33.38;156121.17;1778219;80;21325;-80
2021/04/09 03:31:28;;;;;;;21.27;10.72;;;;;;;19.01;33.18;156122.47;1778203;80;21234;-79
2021/04/09 03:34:00;;;;;;;21.70;9.55;;;;;;;19.02;33.25;156126.47;1778283;80;22197;-81
2021/04/09 03:36:33;;;;;;;18.55;10.78;;;;;;;19.04;33.37;156133.05;1741021;82;21182;-82
2021/04/09 03:39:05;;;;;;;22.42;11.80;;;;;;;19.07;33.25;156139.64;1724636;83;21199;-82
2021/04/09 03:41:38;;;;;;;24.07;11.55;;;;;;;19.08;33.31;156143.64;1724663;83;21242;-81
2021/04/09 03:44:10;;;;;;;24.45;10.85;;;;;;;19.13;33.31;156156.86;1725842;83;21274;-80
2021/04/09 03:46:42;;;;;;;24.25;11.90;;;;;;;19.18;33.20;156170.09;1722688;83;21218;-80
2021/04/09 03:49:15;;;;;;;23.00;10.28;;;;;;;19.26;33.11;156189.91;1722575;83;21264;-81
2021/04/09 03:51:47;;;;;;;19.42;9.63;;;;;;;19.29;33.10;156197.81;1722614;83;21530;-77
2021/04/09 03:54:21;;;;;;;21.02;10.45;;;;;;;19.31;33.13;156204.44;1722469;83;21215;-76
2021/04/09 03:56:54;;;;;;;20.02;9.78;;;;;;;19.40;33.18;156226.86;1723712;83;21365;-79
2021/04/09 03:59:26;;;;;;;15.93;9.33;;;;;;;19.45;33.14;156241.39;1726786;83;22084;-72
2021/04/09 04:01:58;;;;;;;23.27;10.68;;;;;;;19.49;33.09;156250.69;1726815;83;21357;-81
2021/04/09 04:04:31;;;;;;;19.50;10.28;;;;;;;19.55;33.03;156266.50;1726813;83;21373;-80
2021/04/09 04:07:04;;;;;;;19.35;9.98;;;;;;;19.59;33.16;156277.09;1726939;83;22204;-84
2021/04/09 04:09:37;;;;;;;19.17;10.78;;;;;;;19.59;33.31;156277.09;1727086;83;21234;-79
2021/04/09 04:12:10;;;;;;;20.12;10.23;;;;;;;19.63;33.42;156287.64;1726996;83;21378;-80
2021/04/09 04:14:43;;;;;;;22.22;11.40;;;;;;;19.71;33.51;156310.11;1727060;83;21448;-79
2021/04/09 04:17:15;;;;;;;20.82;10.98;;;;;;;19.70;33.66;156307.47;1726685;83;21372;-83
2021/04/09 04:19:48;;;;;;;18.37;9.88;;;;;;;19.75;33.75;156320.69;1726825;83;21480;-75
2021/04/09 04:22:21;;;;;;;14.75;8.58;;;;;;;19.81;33.77;156335.23;1726816;83;21847;-76
2021/04/09 04:24:54;;;;;;;16.02;8.60;;;;;;;19.88;33.78;156355.06;1726757;83;21222;-77
2021/04/09 04:27:27;;;;;;;14.25;9.20;;;;;;;19.98;33.70;156380.19;1726694;83;21226;-81
2021/04/09 04:29:59;;;;;;;16.80;8.88;;;;;;;20.06;33.77;156402.67;1726825;83;21230;-77
2021/04/09 04:32:32;;;;;;;17.15;9.18;;;;;;;20.13;33.78;156421.22;1726793;83;21226;-81
2021/04/09 04:38:42;;;;;;;15.80;8.90;;;;;;;20.33;33.62;156474.06;1726878;83;21175;-85
2021/04/09 04:41:17;;;;;;;13.60;8.43;;;;;;;20.43;33.61;156501.81;1726795;83;21270;-78
2021/04/09 04:43:50;;;;;;;14.28;8.58;;;;;;;20.42;33.74;156499.22;1707340;83;21293;-82
2021/04/09 04:46:24;;;;;;;15.65;8.40;;;;;;;20.51;33.73;156521.66;1726874;83;21274;-81
2021/04/09 04:48:57;;;;;;;13.65;8.93;;;;;;;20.57;33.73;156538.84;1726863;83;21229;-79
2021/04/09 04:51:31;;;;;;;24.00;9.85;;;;;;;20.62;33.74;156552.09;1726674;83;21226;-81
2021/04/09 04:54:05;;;;;;;15.93;9.20;;;;;;;20.67;33.80;156565.28;1726662;83;21729;-84
2021/04/09 04:56:38;;;;;;;18.25;8.45;;;;;;;20.70;33.78;156573.23;1726609;83;21214;-85
2021/04/09 04:59:11;;;;;;;14.68;8.73;;;;;;;20.73;33.79;156579.83;1724980;83;21356;-82
2021/04/09 05:01:44;;;;;;;16.52;9.33;;;;;;;20.78;33.87;156594.44;1780606;80;21495;-80
2021/04/09 05:04:16;;;;;;;14.03;8.90;;;;;;;20.83;33.87;156607.69;1743257;82;21457;-83
2021/04/09 05:06:49;;;;;;;13.45;8.63;;;;;;;20.86;33.91;156614.28;1746236;82;22188;-87
2021/04/09 05:09:22;;;;;;;13.75;9.20;;;;;;;20.86;34.01;156614.28;1745565;82;21189;-88
2021/04/09 05:11:55;;;;;;;16.57;9.10;;;;;;;20.93;33.93;156634.12;1783234;80;21713;-87
2021/04/09 05:14:28;;;;;;;14.40;9.68;;;;;;;21.00;33.96;156653.97;1745779;82;21459;-88
2021/04/09 05:17:00;;;;;;;16.80;9.18;;;;;;;21.05;33.84;156667.22;1783384;80;21673;-87
2021/04/09 05:19:32;;;;;;;16.87;9.75;;;;;;;21.09;33.91;156676.47;1745854;82;21185;-87
2021/04/09 05:22:06;;;;;;;13.60;8.63;;;;;;;21.13;33.94;156688.38;1783263;80;21201;-88
2021/04/09 05:24:39;;;;;;;16.87;9.63;;;;;;;21.21;33.85;156708.22;1745768;82;21189;-88
2021/04/09 05:27:11;;;;;;;15.75;9.80;;;;;;;21.27;33.92;156724.08;1783480;80;21193;-87
2021/04/09 05:29:44;;;;;;;19.67;10.68;;;;;;;21.37;34.00;156750.53;1745705;82;21256;-84
2021/04/09 05:32:16;;;;;;;17.77;10.55;;;;;;;21.43;34.02;156766.44;1783144;80;21300;-84
2021/04/09 05:34:49;;;;;;;17.82;10.50;;;;;;;21.50;33.94;156786.30;1783483;80;21359;-85
2021/04/09 05:37:21;;;;;;;16.42;10.10;;;;;;;21.55;33.84;156798.20;1783318;80;21696;-84
2021/04/09 05:39:53;;;;;;;16.48;9.60;;;;;;;21.60;33.83;156812.81;1783479;80;21252;-84
2021/04/09 05:42:25;;;;;;;16.45;10.65;;;;;;;21.67;33.72;156830.02;1745749;82;21201;-84
2021/04/09 05:44:57;;;;;;;18.82;10.88;;;;;;;21.76;33.74;156855.13;1782486;80;21316;-84
2021/04/09 05:47:30;;;;;;;16.48;10.18;;;;;;;21.83;33.49;156873.69;1783373;80;21201;-84
2021/04/09 05:50:02;;;;;;;20.25;11.55;;;;;;;21.84;33.58;156877.66;1783359;80;21693;-84
2021/04/09 05:52:34;;;;;;;18.37;10.72;;;;;;;21.95;33.39;156906.77;1783373;80;22076;-86
2021/04/09 05:55:08;;;;;;;18.45;11.68;;;;;;;21.91;33.59;156896.22;1783295;80;21182;-86
2021/04/09 05:57:40;;;;;;;17.17;9.85;;;;;;;22.08;33.40;156939.91;1783357;80;21500;-85
2021/04/09 06:00:14;;;;;;;18.10;10.32;;;;;;;22.24;33.18;156982.23;1746885;82;21459;-85
2021/04/09 06:02:46;;;;;;;19.52;10.85;;;;;;;22.32;33.26;157004.81;1791691;80;21178;-82
2021/04/09 06:05:19;;;;;;;18.60;11.97;;;;;;;22.49;33.34;157049.86;1791702;80;21771;-80
2021/04/09 06:07:51;;;;;;;15.18;10.43;;;;;;;22.63;32.92;157086.91;1791352;80;21263;-83
2021/04/09 06:10:23;;;;;;;20.57;10.38;;;;;;;22.67;33.17;157096.22;1792169;80;21197;-84
2021/04/09 06:12:56;;;;;;;16.27;10.28;;;;;;;22.84;32.99;157142.59;1792140;80;21249;-83
2021/04/09 06:15:30;;;;;;;16.85;9.68;;;;;;;22.97;32.80;157177.05;1791957;80;21615;-83
2021/04/09 06:18:02;;;;;;;17.10;9.95;;;;;;;22.80;32.90;157131.97;1751610;82;21377;-83
2021/04/09 06:20:34;;;;;;;18.17;9.73;;;;;;;22.85;33.06;157146.55;1750706;82;21252;-84
2021/04/09 06:23:07;;;;;;;18.30;10.85;;;;;;;22.95;32.88;157173.03;1751342;82;22175;-83
2021/04/09 06:25:39;;;;;;;21.10;10.35;;;;;;;23.04;32.78;157196.88;1772344;80;21382;-83
2021/04/09 06:28:12;;;;;;;18.05;11.12;;;;;;;23.14;32.51;157222.12;1792132;80;21201;-83
2021/04/09 06:30:44;;;;;;;20.00;11.57;;;;;;;23.28;32.21;157259.23;1792010;80;21843;-83
2021/04/09 06:33:17;;;;;;;18.57;10.10;;;;;;;23.59;31.84;157342.75;1791944;80;21229;-83
2021/04/09 06:35:50;;;;;;;19.35;10.90;;;;;;;23.62;31.70;157350.66;1791944;80;21194;-83
2021/04/09 06:38:23;;;;;;;23.83;11.57;;;;;;;;;;1791967;80;21704;-83
2021/04/09 06:40:55;;;;;;;19.65;10.75;;;;;;;23.77;31.55;157390.50;1792032;80;21359;-83
2021/04/09 06:43:28;;;;;;;20.40;11.18;;;;;;;23.88;31.26;157419.67;1792032;80;21343;-83
2021/04/09 06:46:01;;;;;;;19.87;10.25;;;;;;;23.95;31.34;157439.56;1792099;80;21193;-82
2021/04/09 06:48:33;;;;;;;22.58;11.60;;;;;;;24.02;31.37;157456.81;1791977;80;21359;-82
2021/04/09 06:51:06;;;;;;;17.50;10.53;;;;;;;24.05;31.44;157466.08;1792010;80;21720;-83
2021/04/09 06:53:41;;;;;;;16.10;10.50;;;;;;;24.12;31.35;157483.33;1792165;80;21312;-82
2021/04/09 06:56:14;;;;;;;17.65;11.30;;;;;;;24.23;31.13;157512.50;1792049;80;21367;-82
2021/04/09 06:58:49;;;;;;;18.20;10.70;;;;;;;24.27;31.23;157523.13;1792196;80;21692;-82
2021/04/09 07:01:23;;;;;;;16.55;10.30;;;;;;;24.40;31.16;157558.92;1787561;80;22240;-82
2021/04/09 07:03:56;;;;;;;17.87;10.65;;;;;;;24.55;31.18;157597.44;1778508;80;21399;-82
2021/04/09 07:06:32;;;;;;;18.57;11.78;;;;;;;24.61;30.71;157614.69;1778454;80;21383;-81
2021/04/09 07:09:05;;;;;;;17.37;10.30;;;;;;;24.65;30.87;157626.63;1778596;80;21352;-82
2021/04/09 07:11:40;;;;;;;17.37;10.63;;;;;;;24.35;31.10;157545.69;1778508;80;21399;-82
2021/04/09 07:14:13;;;;;;;16.52;10.23;;;;;;;24.30;31.08;157531.09;1778808;80;21781;-82
2021/04/09 07:17:00;;;;;;;17.20;10.10;;;;;;;24.33;31.06;157539.02;1778446;80;21280;-82
2021/04/09 07:19:36;;;;;;;18.92;11.22;;;;;;;24.71;30.66;157641.22;1778468;80;21210;-82
2021/04/09 07:22:09;;;;;;;17.77;10.68;;;;;;;24.80;30.73;157666.44;1778635;80;21194;-82
2021/04/09 07:24:41;;;;;;;20.35;11.03;;;;;;;24.90;30.30;157691.67;1778826;80;21197;-82
2021/04/09 07:27:13;;;;;;;16.67;10.68;;;;;;;24.91;30.42;157694.33;1777523;80;22054;-82
2021/04/09 07:29:46;;;;;;;19.45;11.45;;;;;;;24.86;30.16;157682.39;1766904;80;21507;-82
2021/04/09 07:32:25;;;;;;;20.23;11.08;;;;;;;24.93;30.18;157700.94;1777487;80;21399;-82
2021/04/09 07:35:02;;;;;;;21.95;10.48;;;;;;;24.97;29.94;157710.22;1777494;80;21205;-82
2021/04/09 07:37:56;;;;;;;16.87;10.85;;;;;;;24.92;30.22;157696.98;1777390;80;21380;-81
2021/04/09 07:40:33;;;;;;;16.95;9.45;;;;;;;24.93;29.90;157700.94;1777483;80;21403;-82
2021/04/09 07:43:05;;;;;;;18.27;11.10;;;;;;;24.95;29.47;157704.91;1740155;82;21221;-82
2021/04/09 07:45:38;;;;;;;15.48;9.28;;;;;;;25.12;29.50;157751.41;1685155;83;21808;-82
2021/04/09 07:48:10;;;;;;;16.50;9.85;;;;;;;25.27;29.74;157789.94;1729583;83;21214;-82
2021/04/09 07:50:51;;;;;;;17.27;9.83;;;;;;;25.24;29.38;157783.27;1716712;82;21234;-82
2021/04/09 07:53:41;;;;;;;16.20;8.95;;;;;;;25.51;28.92;157854.97;1737985;82;21225;-82
2021/04/09 07:56:17;;;;;;;19.30;10.40;;;;;;;25.85;29.17;157946.66;1740163;82;21225;-82
2021/04/09 07:58:58;;;;;;;15.32;8.18;;;;;;;25.69;28.82;157902.80;1753332;82;21212;-82
2021/04/09 08:01:30;;;;;;;14.05;7.95;;;;;;;25.99;28.30;157983.81;1753445;82;21233;-82
2021/04/09 08:04:14;;;;;;;13.32;8.98;;;;;;;26.06;28.04;158001.08;1749839;81;21296;-82
2021/04/09 08:06:46;;;;;;;15.90;8.38;;;;;;;25.97;27.64;157978.55;1747688;82;21751;-81
2021/04/09 08:09:18;;;;;;;13.35;7.83;;;;;;;26.00;27.83;157986.47;1720464;82;21721;-82
2021/04/09 08:11:50;;;;;;;14.60;8.63;;;;;;;26.00;27.53;157985.16;1747305;82;21395;-81
2021/04/09 08:14:26;;;;;;;13.15;8.78;;;;;;;25.98;27.84;157979.84;1785340;80;21213;-82
2021/04/09 08:17:03;;;;;;;15.13;8.35;;;;;;;26.03;27.85;157994.45;1747881;82;21219;-83
2021/04/09 08:19:36;;;;;;;15.13;8.70;;;;;;;26.73;27.21;158181.86;1746713;82;21209;-82
2021/04/09 08:22:09;;;;;;;13.25;8.23;;;;;;;26.95;26.87;158238.97;1696094;82;22063;-82
2021/04/09 08:24:42;;;;;;;12.53;7.25;;;;;;;27.09;26.86;158276.25;1747279;82;21326;-82
2021/04/09 08:27:16;;;;;;;15.83;7.92;;;;;;;27.26;26.90;158322.78;1784828;80;21756;-82
2021/04/09 08:29:49;;;;;;;12.13;8.18;;;;;;;27.33;26.08;158340.06;1747411;82;21367;-82
2021/04/09 08:32:21;;;;;;;13.28;7.92;;;;;;;27.27;26.31;158324.09;1784792;80;21209;-82
2021/04/09 08:34:54;;;;;;;15.03;9.00;;;;;;;27.50;26.98;158386.61;1747704;82;21240;-82
2021/04/09 08:37:28;;;;;;;14.50;7.58;;;;;;;27.86;26.67;158483.72;1785191;80;21209;-83
2021/04/09 08:40:00;;;;;;;12.43;8.00;;;;;;;28.28;26.45;158594.19;1747556;82;21216;-83
2021/04/09 08:42:35;;;;;;;11.53;7.40;;;;;;;28.59;26.01;158679.34;1784779;80;21208;-83
2021/04/09 08:45:09;;;;;;;11.00;6.97;;;;;;;28.58;24.77;158676.72;1747616;82;21635;-83
2021/04/09 08:47:43;;;;;;;11.97;7.35;;;;;;;28.17;24.87;158566.23;1784828;80;21241;-82
2021/04/09 08:50:16;;;;;;;10.15;6.83;;;;;;;28.07;24.35;158538.27;1747607;82;21204;-83
2021/04/09 08:52:48;;;;;;;11.12;6.53;;;;;;;28.89;24.02;158759.28;1785111;80;21724;-82
2021/04/09 08:55:20;;;;;;;9.68;6.17;;;;;;;30.03;23.65;159064.34;1747568;82;21204;-83
2021/04/09 08:57:52;;;;;;;9.63;6.58;;;;;;;30.40;23.22;159162.91;1695250;82;21216;-83
2021/04/09 09:00:25;;;;;;;10.98;6.78;;;;;;;30.60;22.38;159216.30;1785272;80;21253;-83
2021/04/09 09:02:57;;;;;;;9.65;6.12;;;;;;;30.55;22.65;159204.31;1747422;82;21713;-82
2021/04/09 09:05:34;;;;;;;5.47;3.15;;;;;;;30.51;22.62;159192.27;1739808;82;21359;-83
2021/04/09 09:08:07;;;;;;;5.30;3.58;;;;;;;30.41;20.81;159166.94;1739850;82;22264;-82
2021/04/09 09:10:45;;;;;;;5.35;3.90;;;;;;;30.27;21.23;159126.94;1739878;82;21360;-83
2021/04/09 09:13:24;;;;;;;5.17;3.80;;;;;;;30.37;20.98;159156.25;1740030;82;21373;-82
2021/04/09 09:15:59;;;;;;;7.70;4.85;;;;;;;30.18;20.96;159104.28;1739882;82;21198;-82
2021/04/09 09:18:37;;;;;;;8.35;5.22;;;;;;;29.76;21.24;158990.98;1739849;82;21379;-82
2021/04/09 09:21:23;;;;;;;7.12;4.55;;;;;;;29.77;21.32;158995.02;1739788;82;21488;-83
2021/04/09 09:24:05;;;;;;;9.83;5.47;;;;;;;30.02;21.23;159060.31;1739811;82;21430;-83
2021/04/09 09:26:48;;;;;;;7.95;4.65;;;;;;;30.21;21.58;159110.97;1739884;82;21631;-83
2021/04/09 09:29:28;;;;;;;5.58;3.55;;;;;;;29.91;20.69;159032.31;1741778;82;21415;-82
2021/04/09 09:32:08;;;;;;;5.85;4.03;;;;;;;29.70;20.39;158975.03;1742437;82;21418;-82
2021/04/09 09:34:50;;;;;;;6.92;3.60;;;;;;;29.64;20.86;158960.38;1742205;82;21398;-82
2021/04/09 09:37:34;;;;;;;4.60;3.62;;;;;;;29.58;20.65;158944.37;1742630;82;21217;-82
2021/04/09 09:40:06;;;;;;;4.67;3.50;;;;;;;29.91;21.04;159032.31;1741898;82;21213;-82
2021/04/09 09:42:44;;;;;;;6.10;3.95;;;;;;;30.14;20.46;159092.30;1742867;82;21326;-82
2021/04/09 09:45:36;;;;;;;7.35;3.98;;;;;;;31.52;20.22;159464.33;1742836;82;21715;-83
2021/04/09 09:48:16;;;;;;;5.65;3.40;;;;;;;33.26;19.33;159930.25;1742986;82;21359;-84
2021/04/09 09:50:50;;;;;;;3.80;3.08;;;;;;;34.51;18.14;160267.00;1743445;82;21375;-84
2021/04/09 09:53:23;;;;;;;6.33;3.22;;;;;;;34.51;18.14;160267.00;1742944;82;21207;-82
2021/04/09 09:55:55;;;;;;;6.12;3.65;;;;;;;34.24;18.50;160194.87;1742797;82;21657;-84
2021/04/09 09:58:31;;;;;;;4.97;3.27;;;;;;;33.74;17.96;160058.53;1742844;82;21471;-83
2021/04/09 10:01:06;;;;;;;8.60;4.08;;;;;;;33.17;18.27;159904.88;1742837;82;21392;-83
2021/04/09 10:03:40;;;;;;;3.17;2.22;;;;;;;32.89;18.60;159831.39;1743157;82;21649;-83
2021/04/09 10:06:13;;;;;;;3.90;2.45;;;;;;;32.64;18.58;159763.33;1742896;82;21591;-83
2021/04/09 10:08:48;;;;;;;4.33;3.17;;;;;;;32.48;17.76;159720.55;1739784;82;21415;-83
2021/04/09 10:11:23;;;;;;;4.25;2.98;;;;;;;33.04;18.06;159871.45;1742583;82;21217;-84
2021/04/09 10:13:56;;;;;;;8.50;3.05;;;;;;;34.76;17.70;160333.89;1742280;82;21340;-83
2021/04/09 10:16:30;;;;;;;4.75;3.10;;;;;;;36.76;17.43;160871.84;1742503;82;22184;-83
2021/04/09 10:19:07;;;;;;;4.42;3.15;;;;;;;38.80;17.10;161421.25;1720110;82;21351;-83
2021/04/09 10:21:42;;;;;;;3.55;3.00;;;;;;;40.41;15.65;161854.63;1743439;82;21347;-83
2021/04/09 10:24:18;;;;;;;2.77;2.17;;;;;;;41.07;15.92;162033.17;1741367;82;21351;-84
2021/04/09 10:27:06;;;;;;;2.52;2.20;;;;;;;41.76;14.43;162219.84;1743446;82;21340;-84
2021/04/09 10:29:38;;;;;;;2.40;1.80;;;;;;;41.78;14.57;162223.91;1740840;82;21644;-84
2021/04/09 10:32:21;;;;;;;2.52;2.20;;;;;;;42.93;14.54;162535.72;1741735;82;21410;-84
2021/04/09 10:34:54;;;;;;;4.53;2.50;;;;;;;44.23;14.20;162888.03;1742026;82;21378;-85
2021/04/09 10:37:27;;;;;;;4.40;2.98;;;;;;;45.29;13.46;163173.38;1742236;82;21951;-84
2021/04/09 10:39:59;;;;;;;3.45;2.55;;;;;;;45.89;13.30;163336.36;1742028;82;21245;-85
2021/04/09 10:42:31;;;;;;;3.30;2.27;;;;;;;46.30;12.81;163446.78;1741034;82;21328;-85
2021/04/09 10:45:20;;;;;;;5.42;2.70;;;;;;;46.54;12.64;163512.78;1741354;82;21379;-87
2021/04/09 10:47:55;;;;;;;3.25;2.30;;;;;;;46.52;12.63;163507.44;1741237;82;21294;-85
2021/04/09 10:50:28;;;;;;;4.33;2.77;;;;;;;46.91;12.50;163612.50;1741619;82;21340;-78
2021/04/09 10:53:00;;;;;;;3.42;2.60;;;;;;;46.97;12.01;163628.69;1734098;82;21348;-86
2021/04/09 10:55:33;;;;;;;4.00;2.87;;;;;;;45.75;12.63;163297.28;1768071;80;21340;-86
2021/04/09 10:58:05;;;;;;;4.85;2.72;;;;;;;45.26;12.91;163166.66;1776556;80;21206;-82
2021/04/09 11:00:39;;;;;;;4.28;2.80;;;;;;;46.07;12.70;163384.80;1776498;80;21281;-87
2021/04/09 11:03:12;;;;;;;3.35;2.50;;;;;;;46.34;12.23;163458.89;1753131;80;21185;-86
2021/04/09 11:05:44;;;;;;;3.77;3.12;;;;;;;45.87;12.31;163330.97;1777246;80;21237;-84
2021/04/09 11:08:42;;;;;;;4.17;2.50;;;;;;;45.69;12.48;163282.44;1782074;80;21390;-86
2021/04/09 11:11:13;;;;;;;2.17;1.90;;;;;;;45.68;12.28;163278.41;1781954;80;21395;-83
2021/04/09 11:13:46;;;;;;;4.95;2.45;;;;;;;45.56;12.32;163246.11;1782218;80;21185;-82
2021/04/09 11:16:18;;;;;;;6.92;5.05;;;;;;;45.98;12.08;163360.58;1782297;80;21399;-82
2021/04/09 11:18:59;;;;;;;5.65;3.40;;;;;;;46.36;11.80;163464.28;1782263;80;21331;-82
2021/04/09 11:21:44;;;;;;;6.17;2.98;;;;;;;46.28;11.95;163442.75;1782297;80;21390;-82
2021/04/09 11:24:25;;;;;;;4.22;2.60;;;;;;;46.56;12.17;163518.19;1771465;80;21209;-82
2021/04/09 11:26:58;;;;;;;3.60;2.42;;;;;;;45.63;12.15;163264.94;1759336;80;21335;-82
2021/04/09 11:29:32;;;;;;;4.28;2.60;;;;;;;44.79;12.69;163038.81;1781236;80;21379;-81
2021/04/09 11:32:15;;;;;;;4.42;2.98;;;;;;;44.55;12.92;162974.19;1781344;80;21237;-82
2021/04/09 11:34:53;;;;;;;3.10;2.62;;;;;;;44.02;12.61;162831.56;1781448;80;21792;-81
2021/04/09 11:37:26;;;;;;;5.00;2.80;;;;;;;42.67;13.22;162464.41;1781115;80;21414;-82
2021/04/09 11:39:58;;;;;;;2.92;2.50;;;;;;;41.17;13.55;162060.06;1781143;80;21442;-82
2021/04/09 11:42:35;;;;;;;3.15;2.40;;;;;;;38.97;14.20;161466.84;1781168;80;21701;-82
2021/04/09 11:45:13;;;;;;;4.35;2.25;;;;;;;38.97;14.20;161466.84;1757419;80;21216;-82
2021/04/09 11:47:46;;;;;;;2.62;2.30;;;;;;;38.83;14.59;161429.31;1781231;80;21190;-81
2021/04/09 11:50:25;;;;;;;5.60;2.60;;;;;;;39.52;14.48;161614.41;1781288;80;21368;-81
2021/04/09 11:53:05;;;;;;;4.78;2.45;;;;;;;40.64;14.18;161916.34;1781409;80;21494;-81
2021/04/09 11:55:40;;;;;;;4.87;3.10;;;;;;;41.00;14.00;162014.34;1781513;80;21355;-81
2021/04/09 11:58:23;;;;;;;4.67;2.98;;;;;;;40.25;14.13;161811.63;1781384;80;22177;-81
2021/04/09 12:01:01;;;;;;;5.78;2.83;;;;;;;39.16;14.41;161519.19;1781416;80;21851;-81